PWSweather.com
Personal Weather Stations
Station Observations
PWSTHORN2
Thornton, Nh Usa, Thornton, NH 03285

Thornton, Nh UsaThornton, NH 03285

Lat: 43.8870699, Lon: -71.6632763

Elevation: 640

Station Type: Ambient WS 2080

Latest ConditionsUpdated 3:20:01 AM EST Thursday, Dec 12, 2019
Currently Today's Max Today's Min Today's Average
Temperature 20.8°F-6.2°C 24.6°F-4.1°C 20.8°F-6.2°C 22.6°F-5.2°C
Dew Point 20.2°F-6.6°C 23.9°F-4.5°C 20.2°F-6.6°C 21.9°F-5.6°C
Winds 7.6 mph S12.2 kmh S 17.4 mph -28.0 kmh - - 9.9 mph 15.9 kmh
Wind Gusts 12.1 mph19.5 kmh 28.2 mph45.4 kmh - -
Humidity 97% 97% 97% 97%
Pressure 30.12 in1020.0 mb 30.13 in1020.3 mb 30.00 in1015.9 mb -
Hour Temp Dew Point Humidity Winds Wind Gusts Pressure Precip Precip Rate Daily Precip Total
03:20 AM 20.8°F-6.2°C 20.2°F-6.6°C 97% 7.6 mph S12.2 kmh S 12.1 mph19.5 kmh 30.12 in1020.0 mb 0.00 in0.0 mm 0.00 in0.0 mm 0.00 in0.0 mm
03:15 AM 20.8°F-6.2°C 20.2°F-6.6°C 97% 7.6 mph S12.2 kmh S 12.1 mph19.5 kmh 30.13 in1020.3 mb 0.00 in0.0 mm 0.00 in0.0 mm 0.00 in0.0 mm
03:10 AM 21.0°F-6.1°C 20.3°F-6.5°C 97% 6.9 mph SSW11.1 kmh SSW 13.0 mph20.9 kmh 30.12 in1020.0 mb 0.00 in0.0 mm 0.00 in0.0 mm 0.00 in0.0 mm
03:05 AM 21.2°F-6.0°C 20.5°F-6.4°C 97% 6.0 mph S9.7 kmh S 13.0 mph20.9 kmh 30.13 in1020.3 mb 0.00 in0.0 mm 0.00 in0.0 mm 0.00 in0.0 mm
03:00 AM 21.2°F-6.0°C 20.5°F-6.4°C 97% 3.8 mph S6.1 kmh S 12.1 mph19.5 kmh 30.12 in1020.0 mb 0.00 in0.0 mm 0.00 in0.0 mm 0.00 in0.0 mm
02:55 AM 21.4°F-5.9°C 20.7°F-6.3°C 97% 6.0 mph SSW9.7 kmh SSW 24.4 mph39.3 kmh 30.12 in1020.0 mb 0.00 in0.0 mm 0.00 in0.0 mm 0.00 in0.0 mm
02:50 AM 21.6°F-5.8°C 20.9°F-6.2°C 97% 6.9 mph SSW11.1 kmh SSW 24.4 mph39.3 kmh 30.12 in1020.0 mb 0.00 in0.0 mm 0.00 in0.0 mm 0.00 in0.0 mm
02:45 AM 21.6°F-5.8°C 20.9°F-6.2°C 97% 8.3 mph S13.4 kmh S 20.6 mph33.2 kmh 30.12 in1020.0 mb 0.00 in0.0 mm 0.00 in0.0 mm 0.00 in0.0 mm
02:40 AM 21.6°F-5.8°C 20.9°F-6.2°C 97% 9.8 mph S15.8 kmh S 20.6 mph33.2 kmh 30.11 in1019.6 mb 0.00 in0.0 mm 0.00 in0.0 mm 0.00 in0.0 mm
02:35 AM 21.7°F-5.7°C 21.0°F-6.1°C 97% 7.6 mph S12.2 kmh S 15.9 mph25.6 kmh 30.12 in1020.0 mb 0.00 in0.0 mm 0.00 in0.0 mm 0.00 in0.0 mm
02:30 AM 21.7°F-5.7°C 21.0°F-6.1°C 97% 7.6 mph S12.2 kmh S 24.4 mph39.3 kmh 30.11 in1019.6 mb 0.00 in0.0 mm 0.00 in0.0 mm 0.00 in0.0 mm
02:25 AM 21.9°F-5.6°C 21.2°F-6.0°C 97% 12.1 mph S19.5 kmh S 24.4 mph39.3 kmh 30.11 in1019.6 mb 0.00 in0.0 mm 0.00 in0.0 mm 0.00 in0.0 mm
02:20 AM 21.7°F-5.7°C 21.0°F-6.1°C 97% 15.2 mph S24.5 kmh S 22.1 mph35.6 kmh 30.11 in1019.6 mb 0.00 in0.0 mm 0.00 in0.0 mm 0.00 in0.0 mm
02:15 AM 21.7°F-5.7°C 21.0°F-6.1°C 97% 9.8 mph S15.8 kmh S 19.7 mph31.7 kmh 30.11 in1019.6 mb 0.00 in0.0 mm 0.00 in0.0 mm 0.00 in0.0 mm
02:10 AM 21.9°F-5.6°C 21.2°F-6.0°C 97% 5.4 mph S8.7 kmh S 19.7 mph31.7 kmh 30.11 in1019.6 mb 0.00 in0.0 mm 0.00 in0.0 mm 0.00 in0.0 mm
02:05 AM 22.1°F-5.5°C 21.4°F-5.9°C 97% 11.4 mph S18.3 kmh S 25.1 mph40.4 kmh 30.10 in1019.3 mb 0.00 in0.0 mm 0.00 in0.0 mm 0.00 in0.0 mm
02:00 AM 22.3°F-5.4°C 21.6°F-5.8°C 97% 9.2 mph S14.8 kmh S 25.1 mph40.4 kmh 30.10 in1019.3 mb 0.00 in0.0 mm 0.00 in0.0 mm 0.00 in0.0 mm
01:55 AM 22.3°F-5.4°C 21.6°F-5.8°C 97% 16.8 mph S27.0 kmh S 24.4 mph39.3 kmh 30.09 in1019.0 mb 0.00 in0.0 mm 0.00 in0.0 mm 0.00 in0.0 mm
01:50 AM 22.3°F-5.4°C 21.6°F-5.8°C 97% 12.1 mph S19.5 kmh S 22.8 mph36.7 kmh 30.08 in1018.6 mb 0.00 in0.0 mm 0.00 in0.0 mm 0.00 in0.0 mm
01:45 AM 22.5°F-5.3°C 21.8°F-5.7°C 97% 11.4 mph S18.3 kmh S 22.8 mph36.7 kmh 30.07 in1018.3 mb 0.00 in0.0 mm 0.00 in0.0 mm 0.00 in0.0 mm
01:40 AM 22.5°F-5.3°C 21.8°F-5.7°C 97% 17.4 mph S28.0 kmh S 25.1 mph40.4 kmh 30.08 in1018.6 mb 0.00 in0.0 mm 0.00 in0.0 mm 0.00 in0.0 mm
01:35 AM 22.6°F-5.2°C 21.9°F-5.6°C 97% 17.4 mph S28.0 kmh S 25.1 mph40.4 kmh 30.07 in1018.3 mb 0.00 in0.0 mm 0.00 in0.0 mm 0.00 in0.0 mm
01:30 AM 22.8°F-5.1°C 22.1°F-5.5°C 97% 3.1 mph S5.0 kmh S 22.1 mph35.6 kmh 30.07 in1018.3 mb 0.00 in0.0 mm 0.00 in0.0 mm 0.00 in0.0 mm
01:25 AM 22.8°F-5.1°C 22.1°F-5.5°C 97% 8.3 mph S13.4 kmh S 25.9 mph41.7 kmh 30.07 in1018.3 mb 0.00 in0.0 mm 0.00 in0.0 mm 0.00 in0.0 mm
01:20 AM 23.0°F-5.0°C 22.3°F-5.4°C 97% 13.0 mph S20.9 kmh S 25.9 mph41.7 kmh 30.07 in1018.3 mb 0.00 in0.0 mm 0.00 in0.0 mm 0.00 in0.0 mm
01:15 AM 23.0°F-5.0°C 22.3°F-5.4°C 97% 13.6 mph S21.9 kmh S 22.8 mph36.7 kmh 30.06 in1017.9 mb 0.00 in0.0 mm 0.00 in0.0 mm 0.00 in0.0 mm
01:10 AM 23.2°F-4.9°C 22.5°F-5.3°C 97% 12.1 mph S19.5 kmh S 22.1 mph35.6 kmh 30.06 in1017.9 mb 0.00 in0.0 mm 0.00 in0.0 mm 0.00 in0.0 mm
01:05 AM 23.4°F-4.8°C 22.7°F-5.2°C 97% 10.7 mph S17.2 kmh S 21.3 mph34.3 kmh 30.06 in1017.9 mb 0.00 in0.0 mm 0.00 in0.0 mm 0.00 in0.0 mm
01:00 AM 23.4°F-4.8°C 22.7°F-5.2°C 97% 13.0 mph S20.9 kmh S 28.2 mph45.4 kmh 30.04 in1017.3 mb 0.00 in0.0 mm 0.00 in0.0 mm 0.00 in0.0 mm
12:55 AM 23.4°F-4.8°C 22.7°F-5.2°C 97% 13.0 mph S20.9 kmh S 28.2 mph45.4 kmh 30.04 in1017.3 mb 0.00 in0.0 mm 0.00 in0.0 mm 0.00 in0.0 mm
12:50 AM 23.5°F-4.7°C 22.8°F-5.1°C 97% 9.8 mph S15.8 kmh S 25.1 mph40.4 kmh 30.04 in1017.3 mb 0.00 in0.0 mm 0.00 in0.0 mm 0.00 in0.0 mm
12:45 AM 23.5°F-4.7°C 22.8°F-5.1°C 97% 13.0 mph S20.9 kmh S 25.1 mph40.4 kmh 30.04 in1017.3 mb 0.00 in0.0 mm 0.00 in0.0 mm 0.00 in0.0 mm
12:40 AM 23.7°F-4.6°C 23.0°F-5.0°C 97% 15.9 mph S25.6 kmh S 26.6 mph42.8 kmh 30.03 in1016.9 mb 0.00 in0.0 mm 0.00 in0.0 mm 0.00 in0.0 mm
12:35 AM 23.7°F-4.6°C 23.0°F-5.0°C 97% 9.2 mph S14.8 kmh S 26.6 mph42.8 kmh 30.02 in1016.6 mb 0.00 in0.0 mm 0.00 in0.0 mm 0.00 in0.0 mm
12:30 AM 23.9°F-4.5°C 23.2°F-4.9°C 97% 9.8 mph S15.8 kmh S 18.3 mph29.5 kmh 30.02 in1016.6 mb 0.00 in0.0 mm 0.00 in0.0 mm 0.00 in0.0 mm
12:25 AM 24.1°F-4.4°C 23.4°F-4.8°C 97% 6.9 mph S11.1 kmh S 18.3 mph29.5 kmh 30.02 in1016.6 mb 0.00 in0.0 mm 0.00 in0.0 mm 0.00 in0.0 mm
12:20 AM 24.4°F-4.2°C 23.7°F-4.6°C 97% 6.0 mph S9.7 kmh S 10.7 mph17.2 kmh 30.02 in1016.6 mb 0.00 in0.0 mm 0.00 in0.0 mm 0.00 in0.0 mm
12:15 AM 24.4°F-4.2°C 23.7°F-4.6°C 97% 6.0 mph S9.7 kmh S 19.0 mph30.6 kmh 30.01 in1016.3 mb 0.00 in0.0 mm 0.00 in0.0 mm 0.00 in0.0 mm
12:10 AM 24.4°F-4.2°C 23.7°F-4.6°C 97% 6.0 mph S9.7 kmh S 19.0 mph30.6 kmh 30.00 in1015.9 mb 0.00 in0.0 mm 0.00 in0.0 mm 0.00 in0.0 mm
12:05 AM 24.6°F-4.1°C 23.9°F-4.5°C 97% 12.1 mph S19.5 kmh S 19.0 mph30.6 kmh 30.00 in1015.9 mb 0.00 in0.0 mm 0.00 in0.0 mm 0.00 in0.0 mm
12:00 AM 24.6°F-4.1°C 23.9°F-4.5°C 97% 7.6 mph S12.2 kmh S 24.4 mph39.3 kmh 30.00 in1015.9 mb 0.00 in0.0 mm 0.00 in0.0 mm 0.00 in0.0 mm